Star Princess — ZCDD6 — position and weather

sailwx.info

Track history (hours):
 
Tides and Currents Weather Stations Pressure Air Temp Water Temp Dewpoint Dewpoint Depression Visibility Wind Speed Wind Dir Waves Ship Positions

Star Princess

Operator: Princess Cruises

Last reported at 2014-Nov-25 10:17 UTC. Time now 2014-Nov-25 20:29 UTC.
Position N 36°41' W 124°49'.

Length 289.6 m; beam 36 m; draft 8.4 m.

Type: Ship. MMSI: 310361000.

Date/timePositionNaut miles runAvg speedWind from/ knotsBaromVisibWave heightAir tempDewpointWater temp
2014-Nov-25 10:17N 36°41' W 124°49'1720.0
2014-Nov-25 09:26N 36°49' W 124°31'1720.1
2014-Nov-25 08:33N 36°59' W 124°13'2119.9
2014-Nov-25 07:31N 37°10' W 123°51'1717.1
2014-Nov-25 06:32N 37°19' W 123°33'1616.3
2014-Nov-25 05:33N 37°28' W 123°16'1615.9
2014-Nov-25 04:33N 37°36' W 122°59'1515.4
2014-Nov-25 03:33N 37°44' W 122°42'1413.9
2014-Nov-25 02:34N 37°49' W 122°26'2 1.7
2014-Nov-25 01:30N 37°48' W 122°24'0 0.0
2014-Nov-25 00:32N 37°48' W 122°24'0 0.0
2014-Nov-24 23:32N 37°48' W 122°24'0 0.0
2014-Nov-24 22:31N 37°48' W 122°24'0 0.0
2014-Nov-24 21:31N 37°48' W 122°24'0 0.0
2014-Nov-24 20:31N 37°48' W 122°24'0 0.0
2014-Nov-24 19:24N 37°48' W 122°24'0 0.0
2014-Nov-24 18:33N 37°48' W 122°24'0 0.0
2014-Nov-24 17:32N 37°48' W 122°24'0 0.0
2014-Nov-24 16:29N 37°48' W 122°24'0 0.0
2014-Nov-24 15:28N 37°48' W 122°24'0 0.1
2014-Nov-24 14:33N 37°48' W 122°24'4 4.1
2014-Nov-24 13:33N 37°49' W 122°29'1211.6
2014-Nov-24 12:33N 37°42' W 122°41'1414.5
2014-Nov-24 11:33N 37°28' W 122°40'1616.0
2014-Nov-24 10:34N 37°12' W 122°45'1616.0
2014-Nov-24 09:34N 36°57' W 122°53'1515.3
2014-Nov-24 08:33N 36°42' W 122°50'1616.3
2014-Nov-24 07:33N 36°27' W 122°43'1616.4
2014-Nov-24 06:33N 36°13' W 122°33'1616.2
2014-Nov-24 05:34N 35°59' W 122°23'1616.3
2014-Nov-24 04:33N 35°44' W 122°14'1616.0
2014-Nov-24 03:34N 35°30' W 122°05'1616.4
2014-Nov-24 02:34N 35°16' W 121°55'1716.7
2014-Nov-24 01:33N 35°01' W 121°45'1616.4
2014-Nov-24 00:33N 34°47' W 121°35'1616.5
2014-Nov-23 23:33N 34°32' W 121°26'1916.3
2014-Nov-23 22:22N 34°15' W 121°15'2417.7
2014-Nov-23 21:00N 33°54' W 121°00'11416.3 320 / 281023.510.8 17.015.318.0
2014-Nov-23 14:00N 32°24' W 119°36'9016.4 260 / 211018.810.8 17.213.318.0
2014-Nov-23 08:31N 31°12' W 118°32'58218.5
2014-Nov-22 01:00N 23°30' W 111°54'   210 / 131013.210.8 23.516.227.0
2014-Nov-15 12:33N 35°09' W 121°52'2020.1
2014-Nov-15 11:33N 35°26' W 122°05'2019.9
2014-Nov-15 10:33N 35°44' W 122°16'  
Track history (hours):
 
Tides and Currents Weather Stations Pressure Air Temp Water Temp Dewpoint Dewpoint Depression Visibility Wind Speed Wind Dir Waves Ship Positions

Star Princess

Operator: Princess Cruises

Last reported at 2014-Nov-25 10:17 UTC. Time now 2014-Nov-25 20:29 UTC.
Position N 36°41' W 124°49'.

Length 289.6 m; beam 36 m; draft 8.4 m.

Type: Ship. MMSI: 310361000.

Date/timePositionNaut miles runAvg speedWind from/ knotsBaromVisibWave heightAir tempDewpointWater temp
2014-Nov-25 10:17N 36°41' W 124°49'1720.0
2014-Nov-25 09:26N 36°49' W 124°31'1720.1
2014-Nov-25 08:33N 36°59' W 124°13'2119.9
2014-Nov-25 07:31N 37°10' W 123°51'1717.1
2014-Nov-25 06:32N 37°19' W 123°33'1616.3
2014-Nov-25 05:33N 37°28' W 123°16'1615.9
2014-Nov-25 04:33N 37°36' W 122°59'1515.4
2014-Nov-25 03:33N 37°44' W 122°42'1413.9
2014-Nov-25 02:34N 37°49' W 122°26'2 1.7
2014-Nov-25 01:30N 37°48' W 122°24'0 0.0
2014-Nov-25 00:32N 37°48' W 122°24'0 0.0
2014-Nov-24 23:32N 37°48' W 122°24'0 0.0
2014-Nov-24 22:31N 37°48' W 122°24'0 0.0
2014-Nov-24 21:31N 37°48' W 122°24'0 0.0
2014-Nov-24 20:31N 37°48' W 122°24'0 0.0
2014-Nov-24 19:24N 37°48' W 122°24'0 0.0
2014-Nov-24 18:33N 37°48' W 122°24'0 0.0
2014-Nov-24 17:32N 37°48' W 122°24'0 0.0
2014-Nov-24 16:29N 37°48' W 122°24'0 0.0
2014-Nov-24 15:28N 37°48' W 122°24'0 0.1
2014-Nov-24 14:33N 37°48' W 122°24'4 4.1
2014-Nov-24 13:33N 37°49' W 122°29'1211.6
2014-Nov-24 12:33N 37°42' W 122°41'1414.5
2014-Nov-24 11:33N 37°28' W 122°40'1616.0
2014-Nov-24 10:34N 37°12' W 122°45'1616.0
2014-Nov-24 09:34N 36°57' W 122°53'1515.3
2014-Nov-24 08:33N 36°42' W 122°50'1616.3
2014-Nov-24 07:33N 36°27' W 122°43'1616.4
2014-Nov-24 06:33N 36°13' W 122°33'1616.2
2014-Nov-24 05:34N 35°59' W 122°23'1616.3
2014-Nov-24 04:33N 35°44' W 122°14'1616.0
2014-Nov-24 03:34N 35°30' W 122°05'1616.4
2014-Nov-24 02:34N 35°16' W 121°55'1716.7
2014-Nov-24 01:33N 35°01' W 121°45'1616.4
2014-Nov-24 00:33N 34°47' W 121°35'1616.5
2014-Nov-23 23:33N 34°32' W 121°26'1916.3
2014-Nov-23 22:22N 34°15' W 121°15'2417.7
2014-Nov-23 21:00N 33°54' W 121°00'11416.3 320 / 281023.510.8 17.015.318.0
2014-Nov-23 14:00N 32°24' W 119°36'9016.4 260 / 211018.810.8 17.213.318.0
2014-Nov-23 08:31N 31°12' W 118°32'58218.5
2014-Nov-22 01:00N 23°30' W 111°54'   210 / 131013.210.8 23.516.227.0
2014-Nov-15 12:33N 35°09' W 121°52'2020.1
2014-Nov-15 11:33N 35°26' W 122°05'2019.9
2014-Nov-15 10:33N 35°44' W 122°16'  

Dump ship's entire track history